Biklabito, New Mexico
Current Conditions -  °F | °C
As of 5:53 PM on Wednesday 22 Oct 2014 (Local Time) from KFMN Reporting Station
Clear Clear  
Wind Chill: 68°   Ceiling: Unl
Heat Index: 68°   Visibility: 10mi
Dew Point: 35°   Wind: 9mph
Humidity: 30%   Direction: 280°W
Pressure: 30.13"   Gusts: NA
Location:  36.3945°N, 108.769°W
Report Text: KFMN 222353Z 28008KT 10SM CLR 20/02 A3013 RMK AO2 SLP173 T02000017 10222 20167 53000
Loading
Personal Weather Stations






























Interactive Weather Map
Tropical Storm Tracking
New forecast layout! Learn more

10-Day Weather Forecast

Advertisements
Track Severe Weather on mobile